sensor_id;sensor_type;location;lat;lon;timestamp;P1;durP1;ratioP1;P2;durP2;ratioP2
4885;SDS011;2457;51.788;6.136;2023-04-06T00:00:49;11.60;;;4.47;;
4885;SDS011;2457;51.788;6.136;2023-04-06T00:03:17;9.20;;;4.40;;
4885;SDS011;2457;51.788;6.136;2023-04-06T00:05:44;7.43;;;4.00;;
4885;SDS011;2457;51.788;6.136;2023-04-06T00:08:12;8.20;;;4.30;;
4885;SDS011;2457;51.788;6.136;2023-04-06T00:10:39;7.10;;;4.27;;
4885;SDS011;2457;51.788;6.136;2023-04-06T00:13:06;8.80;;;4.97;;
4885;SDS011;2457;51.788;6.136;2023-04-06T00:15:34;9.30;;;4.37;;
4885;SDS011;2457;51.788;6.136;2023-04-06T00:18:01;9.27;;;4.77;;
4885;SDS011;2457;51.788;6.136;2023-04-06T00:20:29;9.47;;;5.27;;
4885;SDS011;2457;51.788;6.136;2023-04-06T00:22:56;8.60;;;3.80;;
4885;SDS011;2457;51.788;6.136;2023-04-06T00:25:23;8.53;;;4.40;;
4885;SDS011;2457;51.788;6.136;2023-04-06T00:27:51;14.33;;;4.37;;
4885;SDS011;2457;51.788;6.136;2023-04-06T00:30:18;8.13;;;3.97;;
4885;SDS011;2457;51.788;6.136;2023-04-06T00:32:45;8.20;;;4.07;;
4885;SDS011;2457;51.788;6.136;2023-04-06T00:35:13;9.60;;;4.53;;
4885;SDS011;2457;51.788;6.136;2023-04-06T00:37:41;8.13;;;4.30;;
4885;SDS011;2457;51.788;6.136;2023-04-06T00:40:08;8.80;;;4.67;;
4885;SDS011;2457;51.788;6.136;2023-04-06T00:42:36;9.77;;;4.63;;
4885;SDS011;2457;51.788;6.136;2023-04-06T00:45:03;8.73;;;4.23;;
4885;SDS011;2457;51.788;6.136;2023-04-06T00:47:31;9.70;;;4.53;;
4885;SDS011;2457;51.788;6.136;2023-04-06T00:49:58;9.90;;;5.03;;
4885;SDS011;2457;51.788;6.136;2023-04-06T00:52:26;8.37;;;4.70;;
4885;SDS011;2457;51.788;6.136;2023-04-06T00:54:53;9.80;;;5.13;;
4885;SDS011;2457;51.788;6.136;2023-04-06T00:57:20;8.40;;;4.87;;
4885;SDS011;2457;51.788;6.136;2023-04-06T00:59:47;9.97;;;6.17;;
4885;SDS011;2457;51.788;6.136;2023-04-06T01:02:15;13.53;;;5.47;;
4885;SDS011;2457;51.788;6.136;2023-04-06T01:04:42;10.97;;;4.77;;
4885;SDS011;2457;51.788;6.136;2023-04-06T01:07:09;11.93;;;5.20;;
4885;SDS011;2457;51.788;6.136;2023-04-06T01:09:36;10.40;;;4.47;;
4885;SDS011;2457;51.788;6.136;2023-04-06T01:12:05;8.37;;;4.63;;
4885;SDS011;2457;51.788;6.136;2023-04-06T01:14:33;9.20;;;4.67;;
4885;SDS011;2457;51.788;6.136;2023-04-06T01:17:00;9.97;;;5.40;;
4885;SDS011;2457;51.788;6.136;2023-04-06T01:19:27;8.33;;;4.50;;
4885;SDS011;2457;51.788;6.136;2023-04-06T01:21:55;8.20;;;4.80;;
4885;SDS011;2457;51.788;6.136;2023-04-06T01:24:22;7.47;;;4.60;;
4885;SDS011;2457;51.788;6.136;2023-04-06T01:26:49;9.47;;;4.80;;
4885;SDS011;2457;51.788;6.136;2023-04-06T01:29:17;8.23;;;4.40;;
4885;SDS011;2457;51.788;6.136;2023-04-06T01:31:44;11.37;;;5.17;;
4885;SDS011;2457;51.788;6.136;2023-04-06T01:34:11;8.50;;;4.60;;
4885;SDS011;2457;51.788;6.136;2023-04-06T01:36:38;9.33;;;4.90;;
4885;SDS011;2457;51.788;6.136;2023-04-06T01:39:06;7.40;;;4.63;;
4885;SDS011;2457;51.788;6.136;2023-04-06T01:41:33;8.90;;;4.13;;
4885;SDS011;2457;51.788;6.136;2023-04-06T01:44:01;9.90;;;4.70;;
4885;SDS011;2457;51.788;6.136;2023-04-06T01:46:28;9.60;;;5.13;;
4885;SDS011;2457;51.788;6.136;2023-04-06T01:48:55;9.10;;;4.50;;
4885;SDS011;2457;51.788;6.136;2023-04-06T01:51:23;8.20;;;4.97;;
4885;SDS011;2457;51.788;6.136;2023-04-06T01:53:51;10.00;;;4.80;;
4885;SDS011;2457;51.788;6.136;2023-04-06T01:56:19;11.43;;;4.80;;
4885;SDS011;2457;51.788;6.136;2023-04-06T01:58:46;9.50;;;4.70;;
4885;SDS011;2457;51.788;6.136;2023-04-06T02:01:13;10.93;;;4.87;;
4885;SDS011;2457;51.788;6.136;2023-04-06T02:03:41;8.67;;;4.77;;
4885;SDS011;2457;51.788;6.136;2023-04-06T02:06:08;8.70;;;4.80;;
4885;SDS011;2457;51.788;6.136;2023-04-06T02:08:35;9.47;;;5.07;;
4885;SDS011;2457;51.788;6.136;2023-04-06T02:11:02;9.63;;;4.53;;
4885;SDS011;2457;51.788;6.136;2023-04-06T02:13:30;8.87;;;4.60;;
4885;SDS011;2457;51.788;6.136;2023-04-06T02:15:57;9.27;;;5.10;;
4885;SDS011;2457;51.788;6.136;2023-04-06T02:18:24;10.10;;;5.07;;
4885;SDS011;2457;51.788;6.136;2023-04-06T02:20:52;10.83;;;5.63;;
4885;SDS011;2457;51.788;6.136;2023-04-06T02:23:19;9.13;;;5.53;;
4885;SDS011;2457;51.788;6.136;2023-04-06T02:25:46;10.27;;;5.23;;
4885;SDS011;2457;51.788;6.136;2023-04-06T02:28:13;9.57;;;4.70;;
4885;SDS011;2457;51.788;6.136;2023-04-06T02:30:41;11.70;;;4.90;;
4885;SDS011;2457;51.788;6.136;2023-04-06T02:33:09;10.60;;;5.30;;
4885;SDS011;2457;51.788;6.136;2023-04-06T02:35:36;10.33;;;5.50;;
4885;SDS011;2457;51.788;6.136;2023-04-06T02:38:03;10.73;;;6.50;;
4885;SDS011;2457;51.788;6.136;2023-04-06T02:40:31;13.83;;;6.90;;
4885;SDS011;2457;51.788;6.136;2023-04-06T02:42:58;13.73;;;7.17;;
4885;SDS011;2457;51.788;6.136;2023-04-06T02:45:25;12.73;;;7.03;;
4885;SDS011;2457;51.788;6.136;2023-04-06T02:47:52;15.60;;;7.80;;
4885;SDS011;2457;51.788;6.136;2023-04-06T02:50:20;13.30;;;7.10;;
4885;SDS011;2457;51.788;6.136;2023-04-06T02:52:47;14.70;;;6.80;;
4885;SDS011;2457;51.788;6.136;2023-04-06T02:55:14;18.20;;;8.30;;
4885;SDS011;2457;51.788;6.136;2023-04-06T02:57:41;21.40;;;9.63;;
4885;SDS011;2457;51.788;6.136;2023-04-06T03:00:09;20.13;;;8.00;;
4885;SDS011;2457;51.788;6.136;2023-04-06T03:02:37;18.03;;;9.00;;
4885;SDS011;2457;51.788;6.136;2023-04-06T03:05:04;13.33;;;7.73;;
4885;SDS011;2457;51.788;6.136;2023-04-06T03:07:32;14.43;;;8.10;;
4885;SDS011;2457;51.788;6.136;2023-04-06T03:09:59;15.47;;;6.93;;
4885;SDS011;2457;51.788;6.136;2023-04-06T03:12:26;14.40;;;7.93;;
4885;SDS011;2457;51.788;6.136;2023-04-06T03:14:54;16.03;;;7.17;;
4885;SDS011;2457;51.788;6.136;2023-04-06T03:17:21;14.63;;;7.20;;
4885;SDS011;2457;51.788;6.136;2023-04-06T03:19:48;12.80;;;7.33;;
4885;SDS011;2457;51.788;6.136;2023-04-06T03:22:15;13.37;;;6.97;;
4885;SDS011;2457;51.788;6.136;2023-04-06T03:24:43;15.40;;;7.63;;
4885;SDS011;2457;51.788;6.136;2023-04-06T03:27:10;11.93;;;7.00;;
4885;SDS011;2457;51.788;6.136;2023-04-06T03:29:37;13.70;;;6.60;;
4885;SDS011;2457;51.788;6.136;2023-04-06T03:32:05;15.13;;;6.97;;
4885;SDS011;2457;51.788;6.136;2023-04-06T03:34:32;12.93;;;6.97;;
4885;SDS011;2457;51.788;6.136;2023-04-06T03:36:59;12.77;;;7.13;;
4885;SDS011;2457;51.788;6.136;2023-04-06T03:39:26;12.93;;;7.03;;
4885;SDS011;2457;51.788;6.136;2023-04-06T03:41:54;13.80;;;6.90;;
4885;SDS011;2457;51.788;6.136;2023-04-06T03:44:21;13.73;;;6.53;;
4885;SDS011;2457;51.788;6.136;2023-04-06T03:46:48;11.30;;;6.67;;
4885;SDS011;2457;51.788;6.136;2023-04-06T03:49:15;18.50;;;7.50;;
4885;SDS011;2457;51.788;6.136;2023-04-06T03:51:42;16.47;;;7.00;;
4885;SDS011;2457;51.788;6.136;2023-04-06T03:54:10;13.47;;;6.60;;
4885;SDS011;2457;51.788;6.136;2023-04-06T03:56:37;11.97;;;6.17;;
4885;SDS011;2457;51.788;6.136;2023-04-06T03:59:04;10.87;;;6.03;;
4885;SDS011;2457;51.788;6.136;2023-04-06T04:01:31;13.67;;;7.07;;
4885;SDS011;2457;51.788;6.136;2023-04-06T04:03:59;16.30;;;6.50;;
4885;SDS011;2457;51.788;6.136;2023-04-06T04:06:26;16.10;;;7.47;;
4885;SDS011;2457;51.788;6.136;2023-04-06T04:08:53;12.30;;;6.60;;
4885;SDS011;2457;51.788;6.136;2023-04-06T04:11:21;10.47;;;5.90;;
4885;SDS011;2457;51.788;6.136;2023-04-06T04:13:48;12.00;;;6.63;;
4885;SDS011;2457;51.788;6.136;2023-04-06T04:16:15;10.00;;;5.63;;
4885;SDS011;2457;51.788;6.136;2023-04-06T04:18:43;11.00;;;6.63;;
4885;SDS011;2457;51.788;6.136;2023-04-06T04:21:11;12.87;;;6.40;;
4885;SDS011;2457;51.788;6.136;2023-04-06T04:23:38;11.83;;;5.60;;
4885;SDS011;2457;51.788;6.136;2023-04-06T04:26:06;13.83;;;7.37;;
4885;SDS011;2457;51.788;6.136;2023-04-06T04:28:33;11.70;;;7.40;;
4885;SDS011;2457;51.788;6.136;2023-04-06T04:31:00;10.93;;;6.43;;
4885;SDS011;2457;51.788;6.136;2023-04-06T04:33:27;11.77;;;5.87;;
4885;SDS011;2457;51.788;6.136;2023-04-06T04:35:55;13.80;;;6.03;;
4885;SDS011;2457;51.788;6.136;2023-04-06T04:38:22;13.53;;;6.93;;
4885;SDS011;2457;51.788;6.136;2023-04-06T04:40:49;13.70;;;6.70;;
4885;SDS011;2457;51.788;6.136;2023-04-06T04:43:16;18.80;;;6.50;;
4885;SDS011;2457;51.788;6.136;2023-04-06T04:45:44;12.27;;;6.53;;
4885;SDS011;2457;51.788;6.136;2023-04-06T04:48:11;13.50;;;6.93;;
4885;SDS011;2457;51.788;6.136;2023-04-06T04:50:38;13.97;;;7.20;;
4885;SDS011;2457;51.788;6.136;2023-04-06T04:53:05;12.00;;;6.50;;
4885;SDS011;2457;51.788;6.136;2023-04-06T04:55:33;13.10;;;7.20;;
4885;SDS011;2457;51.788;6.136;2023-04-06T04:58:00;13.57;;;6.97;;
4885;SDS011;2457;51.788;6.136;2023-04-06T05:00:28;11.97;;;6.70;;
4885;SDS011;2457;51.788;6.136;2023-04-06T05:03:02;17.83;;;7.37;;
4885;SDS011;2457;51.788;6.136;2023-04-06T05:05:31;12.83;;;6.30;;
4885;SDS011;2457;51.788;6.136;2023-04-06T05:07:58;14.73;;;7.30;;
4885;SDS011;2457;51.788;6.136;2023-04-06T05:10:25;11.47;;;6.40;;
4885;SDS011;2457;51.788;6.136;2023-04-06T05:12:53;14.03;;;7.43;;
4885;SDS011;2457;51.788;6.136;2023-04-06T05:15:20;13.10;;;6.53;;
4885;SDS011;2457;51.788;6.136;2023-04-06T05:17:48;14.23;;;7.20;;
4885;SDS011;2457;51.788;6.136;2023-04-06T05:20:15;18.83;;;8.00;;
4885;SDS011;2457;51.788;6.136;2023-04-06T05:22:42;11.90;;;6.63;;
4885;SDS011;2457;51.788;6.136;2023-04-06T05:25:09;15.80;;;6.70;;
4885;SDS011;2457;51.788;6.136;2023-04-06T05:27:37;12.30;;;6.70;;
4885;SDS011;2457;51.788;6.136;2023-04-06T05:30:04;14.20;;;7.20;;
4885;SDS011;2457;51.788;6.136;2023-04-06T05:32:32;15.20;;;6.07;;
4885;SDS011;2457;51.788;6.136;2023-04-06T05:34:59;15.00;;;7.00;;
4885;SDS011;2457;51.788;6.136;2023-04-06T05:37:27;13.80;;;6.40;;
4885;SDS011;2457;51.788;6.136;2023-04-06T05:39:54;12.40;;;7.30;;
4885;SDS011;2457;51.788;6.136;2023-04-06T05:42:22;13.57;;;7.27;;
4885;SDS011;2457;51.788;6.136;2023-04-06T05:44:49;17.30;;;7.13;;
4885;SDS011;2457;51.788;6.136;2023-04-06T05:47:17;13.67;;;7.80;;
4885;SDS011;2457;51.788;6.136;2023-04-06T05:49:44;12.90;;;7.40;;
4885;SDS011;2457;51.788;6.136;2023-04-06T05:52:11;16.33;;;7.83;;
4885;SDS011;2457;51.788;6.136;2023-04-06T05:54:38;17.53;;;7.57;;
4885;SDS011;2457;51.788;6.136;2023-04-06T05:57:06;16.87;;;7.13;;
4885;SDS011;2457;51.788;6.136;2023-04-06T05:59:33;18.87;;;8.30;;
4885;SDS011;2457;51.788;6.136;2023-04-06T06:02:00;14.13;;;7.40;;
4885;SDS011;2457;51.788;6.136;2023-04-06T06:04:28;13.13;;;6.87;;
4885;SDS011;2457;51.788;6.136;2023-04-06T06:06:55;15.20;;;7.93;;
4885;SDS011;2457;51.788;6.136;2023-04-06T06:09:22;12.97;;;6.97;;
4885;SDS011;2457;51.788;6.136;2023-04-06T06:11:49;12.50;;;7.03;;
4885;SDS011;2457;51.788;6.136;2023-04-06T06:14:17;14.03;;;7.57;;
4885;SDS011;2457;51.788;6.136;2023-04-06T06:16:44;18.03;;;7.40;;
4885;SDS011;2457;51.788;6.136;2023-04-06T06:19:11;15.63;;;8.13;;
4885;SDS011;2457;51.788;6.136;2023-04-06T06:21:39;20.67;;;7.27;;
4885;SDS011;2457;51.788;6.136;2023-04-06T06:24:06;18.20;;;7.23;;
4885;SDS011;2457;51.788;6.136;2023-04-06T06:26:34;12.83;;;6.50;;
4885;SDS011;2457;51.788;6.136;2023-04-06T06:29:03;13.60;;;7.13;;
4885;SDS011;2457;51.788;6.136;2023-04-06T06:31:31;15.90;;;6.73;;
4885;SDS011;2457;51.788;6.136;2023-04-06T06:33:58;18.87;;;8.50;;
4885;SDS011;2457;51.788;6.136;2023-04-06T06:36:26;18.33;;;7.23;;
4885;SDS011;2457;51.788;6.136;2023-04-06T06:38:53;14.50;;;7.20;;
4885;SDS011;2457;51.788;6.136;2023-04-06T06:41:20;14.93;;;6.93;;
4885;SDS011;2457;51.788;6.136;2023-04-06T06:43:47;15.60;;;7.90;;
4885;SDS011;2457;51.788;6.136;2023-04-06T06:46:15;13.50;;;7.33;;
4885;SDS011;2457;51.788;6.136;2023-04-06T06:48:42;14.47;;;8.23;;
4885;SDS011;2457;51.788;6.136;2023-04-06T06:51:09;23.27;;;8.43;;
4885;SDS011;2457;51.788;6.136;2023-04-06T06:53:37;16.00;;;7.33;;
4885;SDS011;2457;51.788;6.136;2023-04-06T06:56:05;15.60;;;7.17;;
4885;SDS011;2457;51.788;6.136;2023-04-06T06:58:32;13.30;;;8.07;;
4885;SDS011;2457;51.788;6.136;2023-04-06T07:01:00;21.60;;;8.37;;
4885;SDS011;2457;51.788;6.136;2023-04-06T07:03:27;15.63;;;8.43;;
4885;SDS011;2457;51.788;6.136;2023-04-06T07:05:55;15.17;;;8.50;;
4885;SDS011;2457;51.788;6.136;2023-04-06T07:08:23;17.87;;;8.97;;
4885;SDS011;2457;51.788;6.136;2023-04-06T07:10:50;15.73;;;8.13;;
4885;SDS011;2457;51.788;6.136;2023-04-06T07:13:22;14.13;;;7.60;;
4885;SDS011;2457;51.788;6.136;2023-04-06T07:15:50;14.70;;;7.87;;
4885;SDS011;2457;51.788;6.136;2023-04-06T07:18:18;13.93;;;8.03;;
4885;SDS011;2457;51.788;6.136;2023-04-06T07:20:45;15.87;;;7.63;;
4885;SDS011;2457;51.788;6.136;2023-04-06T07:23:13;21.20;;;8.13;;
4885;SDS011;2457;51.788;6.136;2023-04-06T07:25:40;19.50;;;8.70;;
4885;SDS011;2457;51.788;6.136;2023-04-06T07:28:08;16.07;;;9.20;;
4885;SDS011;2457;51.788;6.136;2023-04-06T07:30:36;17.20;;;8.37;;
4885;SDS011;2457;51.788;6.136;2023-04-06T07:33:04;14.10;;;8.17;;
4885;SDS011;2457;51.788;6.136;2023-04-06T07:35:31;14.83;;;8.63;;
4885;SDS011;2457;51.788;6.136;2023-04-06T07:37:59;23.33;;;8.20;;
4885;SDS011;2457;51.788;6.136;2023-04-06T07:40:26;14.80;;;7.43;;
4885;SDS011;2457;51.788;6.136;2023-04-06T07:42:53;17.53;;;8.40;;
4885;SDS011;2457;51.788;6.136;2023-04-06T07:45:21;15.10;;;8.60;;
4885;SDS011;2457;51.788;6.136;2023-04-06T07:47:48;13.40;;;7.87;;
4885;SDS011;2457;51.788;6.136;2023-04-06T07:50:16;16.33;;;8.50;;
4885;SDS011;2457;51.788;6.136;2023-04-06T07:52:43;16.03;;;8.30;;
4885;SDS011;2457;51.788;6.136;2023-04-06T07:55:10;18.53;;;8.50;;
4885;SDS011;2457;51.788;6.136;2023-04-06T07:57:38;19.73;;;8.00;;
4885;SDS011;2457;51.788;6.136;2023-04-06T08:00:05;15.57;;;8.10;;
4885;SDS011;2457;51.788;6.136;2023-04-06T08:02:32;19.10;;;7.70;;
4885;SDS011;2457;51.788;6.136;2023-04-06T08:05:00;20.17;;;9.23;;
4885;SDS011;2457;51.788;6.136;2023-04-06T08:07:27;18.77;;;8.90;;
4885;SDS011;2457;51.788;6.136;2023-04-06T08:09:54;13.97;;;8.37;;
4885;SDS011;2457;51.788;6.136;2023-04-06T08:12:21;16.00;;;9.33;;
4885;SDS011;2457;51.788;6.136;2023-04-06T08:14:49;14.87;;;9.37;;
4885;SDS011;2457;51.788;6.136;2023-04-06T08:17:16;17.90;;;9.37;;
4885;SDS011;2457;51.788;6.136;2023-04-06T08:19:44;19.27;;;9.43;;
4885;SDS011;2457;51.788;6.136;2023-04-06T08:22:11;20.90;;;10.27;;
4885;SDS011;2457;51.788;6.136;2023-04-06T08:24:38;22.50;;;9.37;;
4885;SDS011;2457;51.788;6.136;2023-04-06T08:27:06;21.60;;;9.27;;
4885;SDS011;2457;51.788;6.136;2023-04-06T08:29:33;26.53;;;10.60;;
4885;SDS011;2457;51.788;6.136;2023-04-06T08:32:01;17.80;;;9.30;;
4885;SDS011;2457;51.788;6.136;2023-04-06T08:34:30;21.03;;;9.13;;
4885;SDS011;2457;51.788;6.136;2023-04-06T08:36:57;17.57;;;9.03;;
4885;SDS011;2457;51.788;6.136;2023-04-06T08:39:24;16.47;;;9.10;;
4885;SDS011;2457;51.788;6.136;2023-04-06T08:41:53;26.50;;;9.20;;
4885;SDS011;2457;51.788;6.136;2023-04-06T08:44:25;17.97;;;8.60;;
4885;SDS011;2457;51.788;6.136;2023-04-06T08:46:53;18.03;;;9.07;;
4885;SDS011;2457;51.788;6.136;2023-04-06T08:49:20;16.90;;;9.10;;
4885;SDS011;2457;51.788;6.136;2023-04-06T08:51:48;17.63;;;9.20;;
4885;SDS011;2457;51.788;6.136;2023-04-06T08:54:16;16.50;;;8.83;;
4885;SDS011;2457;51.788;6.136;2023-04-06T08:56:43;19.70;;;9.97;;
4885;SDS011;2457;51.788;6.136;2023-04-06T08:59:11;16.93;;;8.43;;
4885;SDS011;2457;51.788;6.136;2023-04-06T09:01:39;17.60;;;8.73;;
4885;SDS011;2457;51.788;6.136;2023-04-06T09:04:08;14.37;;;8.23;;
4885;SDS011;2457;51.788;6.136;2023-04-06T09:06:37;14.40;;;8.37;;
4885;SDS011;2457;51.788;6.136;2023-04-06T09:09:04;14.60;;;7.97;;
4885;SDS011;2457;51.788;6.136;2023-04-06T09:11:44;14.40;;;8.50;;
4885;SDS011;2457;51.788;6.136;2023-04-06T09:14:12;18.13;;;8.20;;
4885;SDS011;2457;51.788;6.136;2023-04-06T09:16:40;18.07;;;9.43;;
4885;SDS011;2457;51.788;6.136;2023-04-06T09:19:08;21.13;;;8.97;;
4885;SDS011;2457;51.788;6.136;2023-04-06T09:21:35;15.73;;;8.40;;
4885;SDS011;2457;51.788;6.136;2023-04-06T09:24:03;19.00;;;8.67;;
4885;SDS011;2457;51.788;6.136;2023-04-06T09:26:30;17.73;;;8.90;;
4885;SDS011;2457;51.788;6.136;2023-04-06T09:28:59;26.63;;;9.20;;
4885;SDS011;2457;51.788;6.136;2023-04-06T09:31:28;21.77;;;9.60;;
4885;SDS011;2457;51.788;6.136;2023-04-06T09:33:56;16.93;;;7.93;;
4885;SDS011;2457;51.788;6.136;2023-04-06T09:36:30;23.93;;;8.90;;
4885;SDS011;2457;51.788;6.136;2023-04-06T09:38:59;17.60;;;9.60;;
4885;SDS011;2457;51.788;6.136;2023-04-06T09:41:35;15.23;;;8.00;;
4885;SDS011;2457;51.788;6.136;2023-04-06T09:44:02;16.00;;;8.50;;
4885;SDS011;2457;51.788;6.136;2023-04-06T09:46:33;22.40;;;8.97;;
4885;SDS011;2457;51.788;6.136;2023-04-06T09:48:59;14.87;;;8.30;;
4885;SDS011;2457;51.788;6.136;2023-04-06T09:51:27;16.90;;;8.33;;
4885;SDS011;2457;51.788;6.136;2023-04-06T09:53:56;20.70;;;8.80;;
4885;SDS011;2457;51.788;6.136;2023-04-06T09:56:25;21.90;;;9.57;;
4885;SDS011;2457;51.788;6.136;2023-04-06T09:59:01;16.70;;;8.37;;
4885;SDS011;2457;51.788;6.136;2023-04-06T10:01:23;18.67;;;9.30;;
4885;SDS011;2457;51.788;6.136;2023-04-06T10:03:54;19.00;;;8.87;;
4885;SDS011;2457;51.788;6.136;2023-04-06T10:06:21;16.87;;;7.73;;
4885;SDS011;2457;51.788;6.136;2023-04-06T10:08:49;17.40;;;8.50;;
4885;SDS011;2457;51.788;6.136;2023-04-06T10:11:17;19.80;;;9.40;;
4885;SDS011;2457;51.788;6.136;2023-04-06T10:13:45;19.10;;;9.03;;
4885;SDS011;2457;51.788;6.136;2023-04-06T10:16:14;14.57;;;8.40;;
4885;SDS011;2457;51.788;6.136;2023-04-06T10:18:43;18.17;;;8.93;;
4885;SDS011;2457;51.788;6.136;2023-04-06T10:21:11;20.27;;;9.93;;
4885;SDS011;2457;51.788;6.136;2023-04-06T10:23:57;19.17;;;8.73;;
4885;SDS011;2457;51.788;6.136;2023-04-06T10:26:20;18.23;;;8.53;;
4885;SDS011;2457;51.788;6.136;2023-04-06T10:28:48;23.53;;;8.77;;
4885;SDS011;2457;51.788;6.136;2023-04-06T10:31:23;27.00;;;9.73;;
4885;SDS011;2457;51.788;6.136;2023-04-06T10:33:53;16.07;;;8.20;;
4885;SDS011;2457;51.788;6.136;2023-04-06T10:36:14;22.82;;;9.15;;
4885;SDS011;2457;51.788;6.136;2023-04-06T10:38:41;17.30;;;8.37;;
4885;SDS011;2457;51.788;6.136;2023-04-06T10:41:10;17.57;;;8.37;;
4885;SDS011;2457;51.788;6.136;2023-04-06T10:43:39;20.73;;;8.37;;
4885;SDS011;2457;51.788;6.136;2023-04-06T10:46:09;17.70;;;8.63;;
4885;SDS011;2457;51.788;6.136;2023-04-06T10:48:39;15.03;;;7.07;;
4885;SDS011;2457;51.788;6.136;2023-04-06T10:51:12;13.83;;;7.57;;
4885;SDS011;2457;51.788;6.136;2023-04-06T10:53:45;19.33;;;8.40;;
4885;SDS011;2457;51.788;6.136;2023-04-06T10:56:10;17.47;;;8.10;;
4885;SDS011;2457;51.788;6.136;2023-04-06T10:58:38;21.40;;;7.83;;
4885;SDS011;2457;51.788;6.136;2023-04-06T11:01:05;15.17;;;7.13;;
4885;SDS011;2457;51.788;6.136;2023-04-06T11:03:41;12.37;;;7.00;;
4885;SDS011;2457;51.788;6.136;2023-04-06T11:06:03;20.80;;;7.50;;
4885;SDS011;2457;51.788;6.136;2023-04-06T11:08:31;12.70;;;6.43;;
4885;SDS011;2457;51.788;6.136;2023-04-06T11:11:05;15.27;;;7.87;;
4885;SDS011;2457;51.788;6.136;2023-04-06T11:13:40;14.20;;;7.07;;
4885;SDS011;2457;51.788;6.136;2023-04-06T11:16:29;14.53;;;6.87;;
4885;SDS011;2457;51.788;6.136;2023-04-06T11:18:36;13.50;;;6.90;;
4885;SDS011;2457;51.788;6.136;2023-04-06T11:21:03;14.20;;;7.37;;
4885;SDS011;2457;51.788;6.136;2023-04-06T11:23:31;14.50;;;7.37;;
4885;SDS011;2457;51.788;6.136;2023-04-06T11:25:58;12.17;;;7.20;;
4885;SDS011;2457;51.788;6.136;2023-04-06T11:28:25;16.37;;;8.10;;
4885;SDS011;2457;51.788;6.136;2023-04-06T11:30:52;15.67;;;7.73;;
4885;SDS011;2457;51.788;6.136;2023-04-06T11:33:21;14.07;;;7.27;;
4885;SDS011;2457;51.788;6.136;2023-04-06T11:35:48;15.10;;;7.70;;
4885;SDS011;2457;51.788;6.136;2023-04-06T11:38:17;16.73;;;6.60;;
4885;SDS011;2457;51.788;6.136;2023-04-06T11:40:45;15.50;;;8.70;;
4885;SDS011;2457;51.788;6.136;2023-04-06T11:43:13;14.53;;;7.57;;
4885;SDS011;2457;51.788;6.136;2023-04-06T11:45:41;13.43;;;6.47;;
4885;SDS011;2457;51.788;6.136;2023-04-06T11:48:17;14.37;;;6.93;;
4885;SDS011;2457;51.788;6.136;2023-04-06T11:50:38;14.43;;;7.53;;
4885;SDS011;2457;51.788;6.136;2023-04-06T11:53:05;13.57;;;7.07;;
4885;SDS011;2457;51.788;6.136;2023-04-06T11:55:37;18.00;;;7.73;;
4885;SDS011;2457;51.788;6.136;2023-04-06T11:58:01;13.07;;;6.73;;
4885;SDS011;2457;51.788;6.136;2023-04-06T12:00:29;12.53;;;6.70;;
4885;SDS011;2457;51.788;6.136;2023-04-06T12:02:57;17.53;;;7.17;;
4885;SDS011;2457;51.788;6.136;2023-04-06T12:05:25;11.40;;;6.27;;
4885;SDS011;2457;51.788;6.136;2023-04-06T12:07:53;10.60;;;5.57;;
4885;SDS011;2457;51.788;6.136;2023-04-06T12:10:20;13.83;;;6.97;;
4885;SDS011;2457;51.788;6.136;2023-04-06T12:12:47;10.50;;;5.33;;
4885;SDS011;2457;51.788;6.136;2023-04-06T12:15:15;11.87;;;5.90;;
4885;SDS011;2457;51.788;6.136;2023-04-06T12:17:42;11.33;;;5.27;;
4885;SDS011;2457;51.788;6.136;2023-04-06T12:20:10;10.90;;;5.10;;
4885;SDS011;2457;51.788;6.136;2023-04-06T12:22:37;10.37;;;4.97;;
4885;SDS011;2457;51.788;6.136;2023-04-06T12:25:05;10.00;;;5.40;;
4885;SDS011;2457;51.788;6.136;2023-04-06T12:27:32;12.17;;;5.83;;
4885;SDS011;2457;51.788;6.136;2023-04-06T12:30:00;10.63;;;5.00;;
4885;SDS011;2457;51.788;6.136;2023-04-06T12:32:28;8.17;;;4.90;;
4885;SDS011;2457;51.788;6.136;2023-04-06T12:34:55;11.00;;;4.67;;
4885;SDS011;2457;51.788;6.136;2023-04-06T12:37:22;8.10;;;4.53;;
4885;SDS011;2457;51.788;6.136;2023-04-06T12:39:50;9.50;;;5.57;;
4885;SDS011;2457;51.788;6.136;2023-04-06T12:42:17;12.40;;;5.00;;
4885;SDS011;2457;51.788;6.136;2023-04-06T12:44:44;8.10;;;4.53;;
4885;SDS011;2457;51.788;6.136;2023-04-06T12:47:13;14.30;;;5.27;;
4885;SDS011;2457;51.788;6.136;2023-04-06T12:49:40;11.13;;;4.87;;
4885;SDS011;2457;51.788;6.136;2023-04-06T12:52:07;9.67;;;4.70;;
4885;SDS011;2457;51.788;6.136;2023-04-06T12:54:35;10.20;;;4.80;;
4885;SDS011;2457;51.788;6.136;2023-04-06T12:57:02;11.33;;;4.30;;
4885;SDS011;2457;51.788;6.136;2023-04-06T12:59:29;11.40;;;4.50;;
4885;SDS011;2457;51.788;6.136;2023-04-06T13:01:58;11.77;;;4.53;;
4885;SDS011;2457;51.788;6.136;2023-04-06T13:04:26;9.80;;;4.30;;
4885;SDS011;2457;51.788;6.136;2023-04-06T13:06:53;9.47;;;4.27;;
4885;SDS011;2457;51.788;6.136;2023-04-06T13:09:21;10.27;;;4.20;;
4885;SDS011;2457;51.788;6.136;2023-04-06T13:11:48;8.27;;;4.00;;
4885;SDS011;2457;51.788;6.136;2023-04-06T13:14:15;8.53;;;4.37;;
4885;SDS011;2457;51.788;6.136;2023-04-06T13:16:43;7.70;;;3.47;;
4885;SDS011;2457;51.788;6.136;2023-04-06T13:19:10;9.27;;;4.70;;
4885;SDS011;2457;51.788;6.136;2023-04-06T13:21:37;7.53;;;3.83;;
4885;SDS011;2457;51.788;6.136;2023-04-06T13:24:04;12.77;;;4.33;;
4885;SDS011;2457;51.788;6.136;2023-04-06T13:26:32;11.83;;;3.93;;
4885;SDS011;2457;51.788;6.136;2023-04-06T13:28:59;9.33;;;4.47;;
4885;SDS011;2457;51.788;6.136;2023-04-06T13:31:27;11.20;;;5.30;;
4885;SDS011;2457;51.788;6.136;2023-04-06T13:33:55;10.23;;;4.60;;
4885;SDS011;2457;51.788;6.136;2023-04-06T13:36:22;9.40;;;4.10;;
4885;SDS011;2457;51.788;6.136;2023-04-06T13:38:49;9.00;;;4.27;;
4885;SDS011;2457;51.788;6.136;2023-04-06T13:41:20;10.17;;;5.07;;
4885;SDS011;2457;51.788;6.136;2023-04-06T13:43:47;10.37;;;5.33;;
4885;SDS011;2457;51.788;6.136;2023-04-06T13:46:15;10.10;;;5.37;;
4885;SDS011;2457;51.788;6.136;2023-04-06T13:48:43;10.57;;;4.20;;
4885;SDS011;2457;51.788;6.136;2023-04-06T13:51:10;9.03;;;4.53;;
4885;SDS011;2457;51.788;6.136;2023-04-06T13:53:38;9.60;;;4.23;;
4885;SDS011;2457;51.788;6.136;2023-04-06T13:56:06;8.90;;;4.10;;
4885;SDS011;2457;51.788;6.136;2023-04-06T13:58:33;10.33;;;4.43;;
4885;SDS011;2457;51.788;6.136;2023-04-06T14:01:05;8.33;;;4.13;;
4885;SDS011;2457;51.788;6.136;2023-04-06T14:03:32;10.80;;;4.40;;
4885;SDS011;2457;51.788;6.136;2023-04-06T14:06:01;8.50;;;4.90;;
4885;SDS011;2457;51.788;6.136;2023-04-06T14:08:28;9.73;;;4.97;;
4885;SDS011;2457;51.788;6.136;2023-04-06T14:10:56;8.47;;;4.30;;
4885;SDS011;2457;51.788;6.136;2023-04-06T14:13:23;10.53;;;4.70;;
4885;SDS011;2457;51.788;6.136;2023-04-06T14:15:52;8.80;;;4.30;;
4885;SDS011;2457;51.788;6.136;2023-04-06T14:18:19;9.77;;;5.20;;
4885;SDS011;2457;51.788;6.136;2023-04-06T14:20:57;9.93;;;5.47;;
4885;SDS011;2457;51.788;6.136;2023-04-06T14:23:16;10.57;;;5.70;;
4885;SDS011;2457;51.788;6.136;2023-04-06T14:25:43;8.43;;;4.50;;
4885;SDS011;2457;51.788;6.136;2023-04-06T14:28:10;11.90;;;5.60;;
4885;SDS011;2457;51.788;6.136;2023-04-06T14:30:38;9.77;;;4.73;;
4885;SDS011;2457;51.788;6.136;2023-04-06T14:33:05;10.23;;;5.63;;
4885;SDS011;2457;51.788;6.136;2023-04-06T14:35:33;11.37;;;5.30;;
4885;SDS011;2457;51.788;6.136;2023-04-06T14:38:00;12.17;;;5.50;;
4885;SDS011;2457;51.788;6.136;2023-04-06T14:40:28;13.40;;;5.97;;
4885;SDS011;2457;51.788;6.136;2023-04-06T14:42:55;12.00;;;5.60;;
4885;SDS011;2457;51.788;6.136;2023-04-06T14:45:23;12.33;;;5.47;;
4885;SDS011;2457;51.788;6.136;2023-04-06T14:47:50;9.87;;;5.83;;
4885;SDS011;2457;51.788;6.136;2023-04-06T14:50:17;9.60;;;5.27;;
4885;SDS011;2457;51.788;6.136;2023-04-06T14:52:45;11.87;;;6.67;;
4885;SDS011;2457;51.788;6.136;2023-04-06T14:55:13;15.80;;;5.77;;
4885;SDS011;2457;51.788;6.136;2023-04-06T14:57:40;14.60;;;6.37;;
4885;SDS011;2457;51.788;6.136;2023-04-06T15:00:08;13.13;;;6.37;;
4885;SDS011;2457;51.788;6.136;2023-04-06T15:02:35;15.70;;;5.70;;
4885;SDS011;2457;51.788;6.136;2023-04-06T15:05:03;11.30;;;5.00;;
4885;SDS011;2457;51.788;6.136;2023-04-06T15:07:31;11.50;;;5.67;;